Time;durP1;ratioP1;P1;durP2;ratioP2;P2;SDS_P1;SDS_P2;PMS_P1;PMS_P2;Temp;Humidity;BMP_temperature;BMP_pressure;BME280_temperature;BME280_humidity;BME280_pressure;Samples;Min_cycle;Max_cycle;Signal;HPM_P1;HPM_P2
2023/05/07 00:01:49;;;;;;;11.48;5.93;;;;;;;11.59;66.65;94148.16;5123331;28;20115;-81
2023/05/07 00:04:15;;;;;;;11.95;6.78;;;;;;;11.50;67.00;94150.03;5123358;28;20115;-81
2023/05/07 00:06:40;;;;;;;13.32;7.28;;;;;;;11.43;67.72;94159.28;5122912;28;20129;-81
2023/05/07 00:09:06;;;;;;;14.27;6.95;;;;;;;11.31;68.03;94152.97;5122730;28;20035;-81
2023/05/07 00:11:33;;;;;;;11.68;7.03;;;;;;;11.25;68.24;94155.00;5123270;28;20023;-81
2023/05/07 00:13:58;;;;;;;11.45;7.20;;;;;;;11.21;68.54;94156.69;5122933;28;20025;-81
2023/05/07 00:16:24;;;;;;;13.40;7.75;;;;;;;11.20;68.71;94153.25;5127214;28;20313;-81
2023/05/07 00:18:50;;;;;;;10.55;7.05;;;;;;;11.21;68.62;94154.03;5126780;28;20306;-81
2023/05/07 00:21:15;;;;;;;12.50;7.20;;;;;;;11.21;68.47;94148.69;5108681;28;20098;-81
2023/05/07 00:23:41;;;;;;;11.27;6.60;;;;;;;11.21;68.40;94143.34;5126953;28;20024;-81
2023/05/07 00:26:06;;;;;;;12.95;6.90;;;;;;;11.21;68.25;94144.16;5126874;28;20019;-81
2023/05/07 00:28:32;;;;;;;15.48;6.90;;;;;;;11.18;68.27;94141.31;5126528;28;20045;-81
2023/05/07 00:30:57;;;;;;;12.38;6.40;;;;;;;11.16;68.56;94143.50;5108745;28;20043;-81
2023/05/07 00:33:23;;;;;;;10.48;6.00;;;;;;;11.16;68.40;94132.84;5126824;28;20082;-81
2023/05/07 00:35:48;;;;;;;9.52;5.35;;;;;;;11.12;68.43;94137.22;5126595;28;20344;-81
2023/05/07 00:38:14;;;;;;;10.63;5.68;;;;;;;11.09;68.45;94129.81;5126522;28;20019;-81
2023/05/07 00:40:39;;;;;;;7.85;4.90;;;;;;;11.09;67.94;94135.94;5126468;28;20087;-81
2023/05/07 00:43:06;;;;;;;9.30;4.97;;;;;;;11.06;67.67;94141.13;5126504;28;20310;-81
2023/05/07 00:45:32;;;;;;;11.52;6.47;;;;;;;10.94;67.60;94144.38;5126613;28;20031;-81
2023/05/07 00:48:02;;;;;;;8.18;5.03;;;;;;;10.97;67.45;94144.56;5126657;28;20027;-81
2023/05/07 00:50:28;;;;;;;12.00;6.18;;;;;;;10.97;67.41;94147.22;5126707;28;20090;-81
2023/05/07 00:52:54;;;;;;;12.13;5.90;;;;;;;10.95;67.32;94161.94;5126392;28;20026;-81
2023/05/07 00:55:21;;;;;;;8.43;5.32;;;;;;;10.91;67.40;94153.78;5125740;28;20027;-81
2023/05/07 00:57:47;;;;;;;9.77;4.75;;;;;;;10.88;67.68;94150.94;5108060;28;20202;-81
2023/05/07 01:00:13;;;;;;;8.52;4.75;;;;;;;10.84;67.73;94159.53;5126255;28;20019;-81
2023/05/07 01:02:39;;;;;;;7.75;4.70;;;;;;;10.80;67.44;94147.91;5125894;28;20115;-81
2023/05/07 01:05:07;;;;;;;8.60;4.80;;;;;;;10.77;67.76;94158.44;5107913;28;20027;-80
2023/05/07 01:07:34;;;;;;;10.32;4.93;;;;;;;10.73;67.62;94160.13;5125850;28;20049;-81
2023/05/07 01:10:00;;;;;;;10.10;4.63;;;;;;;10.67;67.90;94158.69;5126288;28;20038;-81
2023/05/07 01:12:27;;;;;;;8.80;5.18;;;;;;;10.62;67.95;94149.72;5126163;28;20020;-80
2023/05/07 01:14:53;;;;;;;9.00;5.10;;;;;;;10.58;68.31;94155.94;5125910;28;20030;-81
2023/05/07 01:17:19;;;;;;;11.57;5.30;;;;;;;10.50;68.57;94146.84;5125859;28;20035;-81
2023/05/07 01:19:44;;;;;;;10.45;5.45;;;;;;;10.47;68.75;94142.09;5125828;28;20130;-81
2023/05/07 01:22:14;;;;;;;8.27;4.78;;;;;;;10.43;68.88;94143.81;5125641;28;20020;-80
2023/05/07 01:24:40;;;;;;;8.32;4.95;;;;;;;10.41;68.98;94146.78;5107198;28;20080;-81
2023/05/07 01:27:06;;;;;;;11.23;5.72;;;;;;;10.40;69.07;94144.41;5106687;28;20023;-81
2023/05/07 01:29:31;;;;;;;13.15;5.25;;;;;;;10.41;69.28;94152.09;5125646;28;20306;-81
2023/05/07 01:32:00;;;;;;;11.52;5.13;;;;;;;10.38;69.17;94147.38;5125757;28;20022;-81
2023/05/07 01:34:28;;;;;;;11.05;6.70;;;;;;;10.37;69.33;94142.34;5107531;28;20024;-81
2023/05/07 01:36:55;;;;;;;9.23;5.68;;;;;;;10.32;69.38;94140.63;5123976;28;20043;-81
2023/05/07 01:39:24;;;;;;;10.82;5.65;;;;;;;10.32;69.56;94145.13;5125002;28;20019;-81
2023/05/07 01:41:50;;;;;;;10.30;5.57;;;;;;;10.26;69.69;94133.81;5124713;28;20211;-80
2023/05/07 01:44:18;;;;;;;17.33;6.97;;;;;;;10.24;69.94;94139.44;5124828;28;20076;-81
2023/05/07 01:46:43;;;;;;;14.05;6.75;;;;;;;10.15;70.26;94135.91;5124730;28;20026;-81
2023/05/07 01:49:09;;;;;;;13.02;6.85;;;;;;;10.16;70.54;94126.84;5124716;28;20064;-81
2023/05/07 01:51:35;;;;;;;11.63;6.25;;;;;;;10.15;70.53;94127.13;5124859;28;20334;-81
2023/05/07 01:54:01;;;;;;;14.43;7.10;;;;;;;10.14;70.52;94118.38;5124861;28;20019;-81
2023/05/07 01:56:26;;;;;;;11.13;6.35;;;;;;;10.11;70.65;94118.19;5124696;28;20092;-81
2023/05/07 01:58:52;;;;;;;12.23;6.55;;;;;;;10.05;71.07;94117.50;5124531;28;20095;-81
2023/05/07 02:01:18;;;;;;;11.77;5.95;;;;;;;9.96;71.06;94109.47;5124671;28;20031;-81
2023/05/07 02:03:43;;;;;;;10.50;5.40;;;;;;;9.96;71.33;94111.34;5124406;28;20290;-81
2023/05/07 02:06:09;;;;;;;15.45;7.22;;;;;;;9.94;71.42;94111.66;5124494;28;20214;-81
2023/05/07 02:08:35;;;;;;;9.77;5.82;;;;;;;9.95;71.23;94107.09;5124383;28;20280;-80
2023/05/07 02:11:00;;;;;;;10.27;5.38;;;;;;;9.93;71.30;94099.44;5124577;28;20020;-80
2023/05/07 02:13:29;;;;;;;9.88;4.43;;;;;;;9.88;71.18;94104.09;5124875;28;20024;-81
2023/05/07 02:15:54;;;;;;;9.50;5.15;;;;;;;9.88;71.25;94109.41;5124512;28;20321;-81
2023/05/07 02:18:20;;;;;;;9.85;5.75;;;;;;;9.80;71.55;94098.38;5124304;28;20047;-81
2023/05/07 02:20:45;;;;;;;8.40;4.65;;;;;;;9.79;71.46;94107.47;5123785;28;20019;-81
2023/05/07 02:23:11;;;;;;;11.00;4.95;;;;;;;9.76;71.61;94096.63;5105938;28;20217;-81
2023/05/07 02:25:36;;;;;;;10.02;5.07;;;;;;;9.76;71.70;94100.06;5124189;28;20085;-80
2023/05/07 02:28:01;;;;;;;11.70;5.95;;;;;;;9.74;72.40;94098.81;5124014;28;20050;-80
2023/05/07 02:30:28;;;;;;;12.20;6.80;;;;;;;9.67;73.51;94104.56;5124233;28;20050;-81
2023/05/07 02:32:54;;;;;;;11.27;5.80;;;;;;;9.63;73.48;94104.38;5124059;28;20015;-80
2023/05/07 02:35:19;;;;;;;9.73;5.43;;;;;;;9.63;73.47;94098.25;5105594;28;20034;-80
2023/05/07 02:37:45;;;;;;;8.50;5.50;;;;;;;9.61;73.45;94103.09;5123996;28;20008;-81
2023/05/07 02:40:11;;;;;;;10.45;5.15;;;;;;;9.59;73.20;94108.72;5124138;28;20106;-81
2023/05/07 02:42:37;;;;;;;9.90;6.28;;;;;;;9.56;73.63;94092.56;5124079;28;20099;-81
2023/05/07 02:45:05;;;;;;;11.73;6.38;;;;;;;9.55;73.84;94102.41;5123778;28;20020;-80
2023/05/07 02:47:31;;;;;;;12.60;6.97;;;;;;;9.54;74.29;94100.06;5123772;28;20027;-81
2023/05/07 02:49:56;;;;;;;15.05;7.70;;;;;;;9.49;74.40;94110.81;5124045;28;20054;-81
2023/05/07 02:52:22;;;;;;;15.38;7.28;;;;;;;9.47;74.77;94108.44;5123893;28;20386;-81
2023/05/07 02:54:47;;;;;;;15.20;7.45;;;;;;;9.46;74.90;94114.06;5123322;28;20221;-81
2023/05/07 02:57:13;;;;;;;9.98;6.47;;;;;;;9.46;74.99;94114.06;5123667;28;20016;-81
2023/05/07 02:59:38;;;;;;;14.27;6.32;;;;;;;9.47;74.85;94118.31;5123655;28;20133;-81
2023/05/07 03:02:04;;;;;;;12.80;7.35;;;;;;;9.47;74.79;94116.44;5123332;28;20035;-80
2023/05/07 03:04:29;;;;;;;11.43;6.95;;;;;;;9.47;74.88;94119.09;5123525;28;20378;-80
2023/05/07 03:06:55;;;;;;;11.15;6.93;;;;;;;9.48;74.83;94118.00;5123587;28;20023;-81
2023/05/07 03:09:20;;;;;;;16.95;6.55;;;;;;;9.44;74.88;94120.50;5105357;28;20019;-80
2023/05/07 03:11:46;;;;;;;13.38;7.50;;;;;;;9.43;74.92;94120.78;5123499;28;20061;-80
2023/05/07 03:14:11;;;;;;;12.38;7.28;;;;;;;9.38;75.10;94124.34;5123182;28;20019;-81
2023/05/07 03:16:38;;;;;;;17.17;7.35;;;;;;;9.30;75.29;94121.56;5123221;28;20058;-80
2023/05/07 03:19:03;;;;;;;11.07;5.93;;;;;;;9.28;75.53;94131.72;5123110;28;20026;-81
2023/05/07 03:21:30;;;;;;;15.02;7.10;;;;;;;9.25;75.71;94130.47;5123149;28;20183;-81
2023/05/07 03:23:56;;;;;;;12.35;7.70;;;;;;;9.26;75.75;94137.38;5123848;28;20020;-81
2023/05/07 03:26:21;;;;;;;17.08;7.05;;;;;;;9.27;75.82;94133.59;5123602;28;20318;-81
2023/05/07 03:28:47;;;;;;;19.23;7.55;;;;;;;9.26;76.04;94136.56;5123363;28;20028;-81
2023/05/07 03:31:12;;;;;;;16.65;7.95;;;;;;;9.28;76.11;94137.84;5123221;28;20023;-81
2023/05/07 03:33:50;;;;;;;15.02;7.55;;;;;;;9.31;76.06;94134.59;5122994;28;20023;-80
2023/05/07 03:36:16;;;;;;;13.45;7.60;;;;;;;9.32;75.88;94144.16;5123202;28;20023;-81
2023/05/07 03:38:41;;;;;;;13.05;7.60;;;;;;;9.36;75.71;94133.69;5123069;28;20039;-81
2023/05/07 03:41:07;;;;;;;11.65;7.00;;;;;;;9.34;75.92;94138.50;5123078;28;20031;-81
2023/05/07 03:43:32;;;;;;;12.02;7.32;;;;;;;9.36;75.94;94145.13;5123076;28;20020;-81
2023/05/07 03:45:57;;;;;;;15.02;7.38;;;;;;;9.37;75.74;94145.91;5123088;28;20026;-81
2023/05/07 03:48:23;;;;;;;16.20;7.35;;;;;;;9.35;75.74;94151.53;5123018;28;20352;-81
2023/05/07 03:50:48;;;;;;;13.98;8.10;;;;;;;9.31;76.04;94147.88;5126015;28;20023;-81
2023/05/07 03:53:14;;;;;;;11.65;6.95;;;;;;;9.34;76.34;94138.50;5127068;28;20020;-81
2023/05/07 03:55:39;;;;;;;13.70;6.88;;;;;;;9.42;75.90;94154.59;5127114;28;20328;-80
2023/05/07 03:58:05;;;;;;;11.95;6.82;;;;;;;9.51;75.96;94156.53;5127245;28;20049;-81
2023/05/07 04:00:33;;;;;;;14.65;6.35;;;;;;;9.59;75.74;94161.16;5127378;28;20015;-80
2023/05/07 04:02:58;;;;;;;14.75;7.38;;;;;;;9.59;75.63;94161.94;5126932;28;20349;-80
2023/05/07 04:05:24;;;;;;;12.38;7.13;;;;;;;9.68;75.49;94171.88;5126912;28;20022;-81
2023/05/07 04:07:50;;;;;;;21.70;6.88;;;;;;;9.75;75.47;94169.56;5126896;28;20076;-81
2023/05/07 04:10:15;;;;;;;12.13;7.70;;;;;;;9.81;75.05;94177.16;5126745;28;20026;-81
2023/05/07 04:12:40;;;;;;;13.73;8.07;;;;;;;9.92;75.01;94179.59;5126944;28;20314;-81
2023/05/07 04:15:06;;;;;;;16.50;7.60;;;;;;;9.98;74.44;94179.19;5126880;28;20022;-81
2023/05/07 04:17:32;;;;;;;12.35;7.20;;;;;;;9.99;74.50;94190.63;5126794;28;20088;-80
2023/05/07 04:19:57;;;;;;;12.88;7.38;;;;;;;10.08;74.23;94191.50;5127034;28;20016;-81
2023/05/07 04:22:23;;;;;;;10.82;7.25;;;;;;;10.13;74.39;94186.03;5126862;28;20035;-81
2023/05/07 04:24:48;;;;;;;11.63;7.75;;;;;;;10.16;74.79;94185.44;5126574;28;20047;-81
2023/05/07 04:27:14;;;;;;;16.15;7.25;;;;;;;10.19;74.87;94195.47;5126195;28;20023;-81
2023/05/07 04:29:42;;;;;;;10.90;7.78;;;;;;;10.20;74.59;94197.06;5126345;28;20015;-81
2023/05/07 04:32:08;;;;;;;11.70;7.32;;;;;;;10.23;74.48;94207.09;5126369;28;20031;-81
2023/05/07 04:34:34;;;;;;;11.45;7.28;;;;;;;10.17;74.86;94202.22;5126463;28;20224;-80
2023/05/07 04:37:00;;;;;;;14.65;8.27;;;;;;;10.17;74.47;94207.53;5126299;28;20039;-81
2023/05/07 04:39:25;;;;;;;16.27;7.95;;;;;;;10.15;74.33;94205.16;5126521;28;20024;-80
2023/05/07 04:41:51;;;;;;;18.58;8.77;;;;;;;10.18;74.71;94209.91;5126312;28;20051;-81
2023/05/07 04:44:16;;;;;;;15.57;8.05;;;;;;;10.27;74.50;94217.16;5126044;28;20046;-81
2023/05/07 04:46:42;;;;;;;23.17;8.82;;;;;;;10.27;74.70;94206.50;5126097;28;20300;-81
2023/05/07 04:49:07;;;;;;;16.08;8.80;;;;;;;10.33;74.38;94210.66;5126568;28;20023;-80
2023/05/07 04:51:33;;;;;;;15.73;8.43;;;;;;;10.36;74.36;94210.03;5126241;28;20030;-80
2023/05/07 04:53:58;;;;;;;13.55;8.20;;;;;;;10.41;74.39;94208.06;5126009;28;20091;-81
2023/05/07 04:56:23;;;;;;;11.88;7.60;;;;;;;10.46;74.32;94209.03;5126292;28;20019;-81
2023/05/07 04:58:49;;;;;;;23.05;8.75;;;;;;;10.50;74.45;94208.13;5126262;28;20321;-81
2023/05/07 05:01:14;;;;;;;14.95;8.20;;;;;;;10.56;74.58;94214.91;5124618;28;20019;-81
2023/05/07 05:03:40;;;;;;;16.73;8.70;;;;;;;10.63;74.84;94219.81;5126118;28;20346;-80
2023/05/07 05:06:06;;;;;;;16.42;9.18;;;;;;;10.77;74.58;94219.75;5126016;28;20024;-81
2023/05/07 05:08:31;;;;;;;18.38;9.27;;;;;;;10.88;74.18;94210.38;5125897;28;20293;-81
2023/05/07 05:10:57;;;;;;;15.35;7.38;;;;;;;11.00;73.12;94201.81;5126171;28;20051;-81
2023/05/07 05:13:22;;;;;;;22.00;8.40;;;;;;;11.07;72.62;94193.38;5125412;28;20027;-81
2023/05/07 05:15:48;;;;;;;14.82;8.48;;;;;;;11.13;72.52;94202.81;5125805;28;20038;-81
2023/05/07 05:18:13;;;;;;;13.75;8.00;;;;;;;11.21;71.89;94207.38;5125760;28;20020;-81
2023/05/07 05:20:38;;;;;;;17.17;9.10;;;;;;;11.28;71.56;94210.41;5125564;28;20057;-81
2023/05/07 05:23:04;;;;;;;17.52;8.88;;;;;;;11.33;71.35;94204.94;5125422;28;20030;-81
2023/05/07 05:25:30;;;;;;;17.08;8.85;;;;;;;11.38;70.96;94204.03;5125354;28;20020;-80
2023/05/07 05:27:56;;;;;;;16.38;8.02;;;;;;;11.37;71.20;94210.44;5125514;28;20091;-81
2023/05/07 05:30:21;;;;;;;13.25;7.63;;;;;;;11.42;70.93;94205.75;5125686;28;20086;-81
2023/05/07 05:32:47;;;;;;;19.38;9.13;;;;;;;11.51;70.79;94215.66;5125381;28;20031;-81
2023/05/07 05:35:12;;;;;;;12.00;7.93;;;;;;;11.53;70.65;94211.59;5125095;28;20022;-81
2023/05/07 05:37:38;;;;;;;14.85;8.25;;;;;;;11.55;70.14;94219.28;5124946;28;20068;-80
2023/05/07 05:40:04;;;;;;;16.35;7.90;;;;;;;11.66;69.79;94217.91;5124735;28;20195;-81
2023/05/07 05:42:29;;;;;;;15.70;7.82;;;;;;;11.72;69.72;94216.66;5106773;28;20069;-81
2023/05/07 05:44:54;;;;;;;11.43;7.32;;;;;;;11.78;69.33;94218.06;5125361;28;20023;-81
2023/05/07 05:47:20;;;;;;;17.52;8.43;;;;;;;11.84;69.05;94211.53;5125120;28;20026;-81
2023/05/07 05:49:45;;;;;;;13.82;7.78;;;;;;;11.88;68.97;94219.66;5124908;28;20302;-81
2023/05/07 05:52:13;;;;;;;15.15;7.25;;;;;;;11.92;68.82;94219.88;5124944;28;20026;-80
2023/05/07 05:54:39;;;;;;;17.55;8.88;;;;;;;12.00;68.35;94208.41;5124840;28;20025;-81
2023/05/07 05:57:04;;;;;;;11.68;8.00;;;;;;;12.01;68.14;94213.44;5124975;28;20016;-81
2023/05/07 05:59:30;;;;;;;12.60;7.95;;;;;;;12.10;68.39;94216.13;5124937;28;20213;-81
2023/05/07 06:01:55;;;;;;;15.60;8.75;;;;;;;12.20;67.91;94221.16;5124810;28;20048;-81
2023/05/07 06:04:21;;;;;;;12.85;8.05;;;;;;;12.27;67.61;94212.66;5124779;28;20310;-80
2023/05/07 06:06:46;;;;;;;12.43;7.60;;;;;;;12.39;67.51;94212.03;5124718;28;20314;-80
2023/05/07 06:09:12;;;;;;;14.75;7.55;;;;;;;12.49;66.56;94222.41;5124710;28;20237;-80
2023/05/07 06:11:37;;;;;;;11.02;6.90;;;;;;;12.48;66.40;94220.84;5124676;28;20087;-81
2023/05/07 06:14:02;;;;;;;16.85;7.97;;;;;;;12.56;65.72;94222.72;5124052;28;20323;-80
2023/05/07 06:16:28;;;;;;;12.70;7.25;;;;;;;12.61;65.68;94213.75;5124615;28;20091;-81
2023/05/07 06:18:54;;;;;;;12.95;7.50;;;;;;;12.69;65.54;94212.16;5124654;28;20016;-81
2023/05/07 06:21:19;;;;;;;12.40;7.03;;;;;;;12.81;65.00;94220.31;5106086;28;20333;-81
2023/05/07 06:23:45;;;;;;;19.05;7.05;;;;;;;12.89;64.43;94216.84;5124353;28;20150;-81
2023/05/07 06:26:10;;;;;;;9.15;6.10;;;;;;;12.97;63.81;94215.25;5124417;28;20012;-81
2023/05/07 06:28:35;;;;;;;10.25;6.25;;;;;;;13.05;62.96;94209.09;5124322;28;20031;-81
2023/05/07 06:31:17;;;;;;;13.88;7.32;;;;;;;13.18;62.95;94204.66;5106301;28;20085;-81
2023/05/07 06:33:44;;;;;;;9.75;6.50;;;;;;;13.30;62.76;94199.44;5124343;28;20027;-81
2023/05/07 06:36:10;;;;;;;21.13;6.10;;;;;;;13.42;62.66;94194.19;5124593;28;20027;-81
2023/05/07 06:38:35;;;;;;;10.73;5.90;;;;;;;13.52;62.99;94198.38;5124510;28;20023;-80
2023/05/07 06:41:01;;;;;;;10.15;5.88;;;;;;;13.67;62.44;94206.97;5123980;28;20090;-81
2023/05/07 06:43:26;;;;;;;13.15;6.45;;;;;;;13.76;61.25;94196.97;5123642;28;20035;-81
2023/05/07 06:45:52;;;;;;;12.82;6.25;;;;;;;13.83;60.70;94199.94;5124306;28;20058;-81
2023/05/07 06:48:17;;;;;;;10.75;5.60;;;;;;;13.90;60.90;94188.72;5124029;28;20559;-81
2023/05/07 06:50:43;;;;;;;13.85;6.93;;;;;;;14.03;60.52;94190.38;5123952;28;20046;-81
2023/05/07 06:53:08;;;;;;;13.10;6.57;;;;;;;14.14;60.44;94188.84;5124004;28;20027;-81
2023/05/07 06:55:34;;;;;;;11.90;5.55;;;;;;;14.23;59.32;94186.91;5123752;28;20222;-81
2023/05/07 06:58:00;;;;;;;10.52;5.05;;;;;;;14.25;58.59;94186.56;5123609;28;20194;-81
2023/05/07 07:00:27;;;;;;;9.85;5.38;;;;;;;14.31;58.61;94184.47;5124308;28;20024;-81
2023/05/07 07:02:53;;;;;;;12.38;5.80;;;;;;;14.37;57.71;94183.97;5123623;28;20230;-81
2023/05/07 07:05:19;;;;;;;12.55;4.85;;;;;;;14.46;57.53;94186.56;5123583;28;20229;-81
2023/05/07 07:07:52;;;;;;;13.35;5.40;;;;;;;14.53;56.90;94183.34;5123486;28;20024;-80
2023/05/07 07:10:18;;;;;;;10.80;4.95;;;;;;;14.53;56.44;94186.81;5123329;28;20409;-81
2023/05/07 07:12:44;;;;;;;12.23;5.57;;;;;;;14.60;56.38;94178.25;5123529;28;20037;-81
2023/05/07 07:15:10;;;;;;;8.85;4.75;;;;;;;14.66;55.90;94179.63;5123526;28;20016;-81
2023/05/07 07:17:35;;;;;;;11.15;4.68;;;;;;;14.70;55.99;94180.53;5123445;28;20020;-81
2023/05/07 07:20:01;;;;;;;9.30;4.45;;;;;;;14.78;55.76;94186.94;5123328;28;20016;-81
2023/05/07 07:22:26;;;;;;;8.55;6.07;;;;;;;14.83;55.48;94178.66;5123348;28;20081;-81
2023/05/07 07:24:52;;;;;;;10.90;4.78;;;;;;;14.90;55.37;94181.59;5122537;28;20027;-81
2023/05/07 07:27:17;;;;;;;9.60;4.80;;;;;;;15.00;55.46;94173.13;5123391;28;20187;-81
2023/05/07 07:29:42;;;;;;;11.63;4.68;;;;;;;15.07;55.20;94185.19;5123409;28;20027;-81
2023/05/07 07:32:08;;;;;;;23.42;5.50;;;;;;;15.09;55.06;94175.69;5123302;28;20019;-81
2023/05/07 07:34:34;;;;;;;7.45;4.78;;;;;;;15.19;55.41;94171.78;5123218;28;20039;-81
2023/05/07 07:37:05;;;;;;;9.93;5.95;;;;;;;15.35;55.03;94178.06;5123348;28;20018;-81
2023/05/07 07:39:31;;;;;;;19.73;4.88;;;;;;;15.46;54.76;94183.78;5123181;28;20034;-81
2023/05/07 07:41:56;;;;;;;8.60;5.20;;;;;;;15.55;53.81;94172.91;5123450;28;20015;-81
2023/05/07 07:44:22;;;;;;;9.80;4.82;;;;;;;15.58;53.43;94181.09;5123197;28;20016;-81
2023/05/07 07:46:47;;;;;;;7.63;3.95;;;;;;;15.62;53.07;94181.97;5123130;28;20213;-81
2023/05/07 07:49:13;;;;;;;14.63;4.72;;;;;;;15.72;52.36;94177.28;5123597;28;20183;-81
2023/05/07 07:51:38;;;;;;;8.68;4.93;;;;;;;15.76;52.74;94188.97;5123569;28;20023;-81
2023/05/07 07:54:04;;;;;;;13.75;5.07;;;;;;;15.87;50.53;94179.28;5123218;28;20027;-81
2023/05/07 07:56:29;;;;;;;11.43;4.57;;;;;;;15.93;50.55;94187.91;5122947;28;20015;-81
2023/05/07 07:58:55;;;;;;;8.77;3.25;;;;;;;15.96;50.00;94188.03;5123295;28;20060;-81
2023/05/07 08:01:20;;;;;;;12.40;4.70;;;;;;;16.10;50.52;94193.06;5104840;28;20221;-81
2023/05/07 08:03:46;;;;;;;13.70;5.18;;;;;;;16.15;51.07;94187.44;5123098;28;20026;-81
2023/05/07 08:06:11;;;;;;;14.43;4.35;;;;;;;16.19;50.82;94188.31;5123201;28;20344;-81
2023/05/07 08:08:37;;;;;;;8.63;5.55;;;;;;;16.24;50.72;94185.41;5122637;28;20361;-81
2023/05/07 08:11:02;;;;;;;12.40;5.70;;;;;;;16.37;51.01;94190.75;5122936;28;20041;-81
2023/05/07 08:13:28;;;;;;;8.85;5.57;;;;;;;16.49;50.39;94185.31;5123048;28;20229;-81
2023/05/07 08:15:53;;;;;;;8.25;4.95;;;;;;;16.56;50.71;94180.13;5123116;28;20317;-81
2023/05/07 08:18:19;;;;;;;7.07;4.55;;;;;;;16.72;50.12;94182.84;5123182;28;20016;-81
2023/05/07 08:20:44;;;;;;;14.25;5.82;;;;;;;16.81;49.82;94182.72;5122896;28;20061;-81
2023/05/07 08:23:10;;;;;;;21.88;5.93;;;;;;;16.76;49.08;94177.59;5104988;28;20256;-81
2023/05/07 08:25:35;;;;;;;8.88;4.68;;;;;;;16.89;48.53;94175.63;5123192;28;20020;-81
2023/05/07 08:28:01;;;;;;;11.35;4.38;;;;;;;16.91;47.44;94176.06;5123177;28;20065;-81
2023/05/07 08:30:27;;;;;;;7.40;4.55;;;;;;;16.98;47.58;94179.72;5123148;28;20016;-81
2023/05/07 08:32:52;;;;;;;10.82;4.32;;;;;;;17.08;46.40;94174.97;5123009;28;20183;-81
2023/05/07 08:35:18;;;;;;;7.97;3.90;;;;;;;17.13;47.34;94175.47;5104894;28;20035;-81
2023/05/07 08:37:44;;;;;;;7.65;3.33;;;;;;;17.23;46.47;94174.97;5126517;28;20011;-82
2023/05/07 08:40:10;;;;;;;14.15;5.00;;;;;;;17.39;46.23;94166.88;5126333;28;20016;-81
2023/05/07 08:42:37;;;;;;;14.10;5.53;;;;;;;17.52;46.19;94169.50;5126365;28;20034;-81
2023/05/07 08:45:05;;;;;;;9.68;5.85;;;;;;;17.56;46.79;94175.75;5126438;28;20089;-81
2023/05/07 08:47:38;;;;;;;16.27;5.97;;;;;;;17.65;45.45;94170.97;5126152;28;20221;-80
2023/05/07 08:50:05;;;;;;;9.90;5.10;;;;;;;17.63;45.85;94167.84;5126045;28;20242;-81
2023/05/07 08:52:31;;;;;;;12.05;5.72;;;;;;;17.75;45.64;94167.72;5125856;28;20038;-81
2023/05/07 08:54:58;;;;;;;10.32;6.00;;;;;;;17.91;46.07;94164.22;5126090;28;20126;-81
2023/05/07 08:57:24;;;;;;;11.40;5.43;;;;;;;18.05;46.79;94161.84;5126298;28;20066;-81
2023/05/07 08:59:49;;;;;;;10.55;5.80;;;;;;;18.16;45.70;94154.78;5125924;28;20294;-81
2023/05/07 09:02:16;;;;;;;14.30;5.00;;;;;;;18.31;45.77;94146.97;5125840;28;20089;-82
2023/05/07 09:04:41;;;;;;;8.77;5.53;;;;;;;18.41;45.88;94149.09;5125797;28;20031;-81
2023/05/07 09:07:07;;;;;;;9.52;5.60;;;;;;;18.52;45.13;94144.72;5125723;28;20070;-81
2023/05/07 09:09:36;;;;;;;11.27;5.43;;;;;;;18.64;45.01;94135.66;5125591;28;20095;-81
2023/05/07 09:12:03;;;;;;;10.80;5.43;;;;;;;18.76;44.37;94148.22;5125694;28;20027;-81
2023/05/07 09:14:30;;;;;;;11.05;6.05;;;;;;;18.83;42.49;94149.16;5125630;28;20031;-81
2023/05/07 09:16:56;;;;;;;10.77;5.40;;;;;;;18.78;42.41;94144.00;5125697;28;20046;-81
2023/05/07 09:19:24;;;;;;;10.15;5.50;;;;;;;18.89;43.23;94138.84;5125617;28;20023;-82
2023/05/07 09:21:57;;;;;;;8.23;4.43;;;;;;;19.08;42.57;94140.72;5125800;28;20027;-81
2023/05/07 09:24:23;;;;;;;11.00;4.55;;;;;;;19.22;41.63;94142.88;5126027;28;20015;-81
2023/05/07 09:26:48;;;;;;;8.93;4.35;;;;;;;19.44;42.29;94139.38;5125607;28;20260;-81
2023/05/07 09:29:16;;;;;;;8.57;4.72;;;;;;;19.66;41.39;94123.47;5107133;28;20041;-81
2023/05/07 09:31:42;;;;;;;11.48;4.70;;;;;;;19.88;40.49;94130.00;5125534;28;20073;-81
2023/05/07 09:34:08;;;;;;;8.65;4.25;;;;;;;19.98;38.40;94120.47;5125164;28;20015;-81
2023/05/07 09:36:33;;;;;;;6.25;4.50;;;;;;;19.97;38.91;94127.06;5125317;28;20019;-82
2023/05/07 09:39:02;;;;;;;7.57;4.00;;;;;;;20.07;39.30;94118.28;5125265;28;20012;-80
2023/05/07 09:41:30;;;;;;;10.45;4.38;;;;;;;20.24;38.22;94125.84;5125370;28;20023;-82
2023/05/07 09:43:55;;;;;;;11.13;4.85;;;;;;;20.24;37.25;94123.13;5125254;28;20023;-81
2023/05/07 09:46:34;;;;;;;7.28;4.03;;;;;;;20.18;36.61;94115.72;5125027;28;20026;-81
2023/05/07 09:49:02;;;;;;;6.57;4.60;;;;;;;20.13;36.86;94124.16;5124167;28;20305;-81
2023/05/07 09:51:39;;;;;;;7.03;3.90;;;;;;;20.21;35.63;94120.38;5125132;28;20024;-81
2023/05/07 09:54:05;;;;;;;6.35;3.85;;;;;;;20.26;36.28;94122.00;5124878;28;20023;-82
2023/05/07 09:56:31;;;;;;;5.53;3.47;;;;;;;20.40;35.89;94105.94;5124915;28;20027;-81
2023/05/07 09:59:00;;;;;;;9.40;4.32;;;;;;;20.62;36.95;94110.47;5125287;28;20060;-81
2023/05/07 10:01:27;;;;;;;10.55;4.20;;;;;;;20.72;36.47;94111.75;5124873;28;20252;-81
2023/05/07 10:03:52;;;;;;;13.18;3.97;;;;;;;20.80;37.24;94109.84;5124602;28;20023;-81
2023/05/07 10:06:22;;;;;;;7.10;3.75;;;;;;;20.97;37.27;94106.56;5124597;28;20106;-81
2023/05/07 10:08:48;;;;;;;11.52;4.43;;;;;;;21.20;38.34;94119.13;5124767;28;20489;-81
2023/05/07 10:11:15;;;;;;;8.77;4.22;;;;;;;21.35;38.73;94106.47;5124490;28;20036;-81
2023/05/07 10:13:43;;;;;;;9.65;5.28;;;;;;;21.54;38.04;94105.50;5124387;28;20092;-81
2023/05/07 10:16:09;;;;;;;15.75;4.60;;;;;;;21.73;37.30;94102.53;5124320;28;20038;-81
2023/05/07 10:18:34;;;;;;;11.50;5.55;;;;;;;21.83;35.44;94104.53;5124423;28;20020;-81
2023/05/07 10:21:08;;;;;;;9.93;4.60;;;;;;;21.96;35.04;94105.00;5124664;28;20035;-82
2023/05/07 10:23:34;;;;;;;12.38;3.80;;;;;;;21.99;33.40;94101.50;5124334;28;20351;-81
2023/05/07 10:26:03;;;;;;;4.90;3.00;;;;;;;22.02;34.01;94095.34;5124124;28;20226;-81
2023/05/07 10:28:32;;;;;;;6.28;3.90;;;;;;;22.21;34.07;94090.78;5124282;28;20028;-81
2023/05/07 10:31:10;;;;;;;9.18;3.58;;;;;;;22.40;33.41;94089.69;5124280;28;20031;-81
2023/05/07 10:33:37;;;;;;;6.28;3.65;;;;;;;22.57;33.13;94080.84;5124133;28;20025;-81
2023/05/07 10:36:04;;;;;;;8.73;3.17;;;;;;;22.67;32.18;94070.38;5123980;28;20012;-81
2023/05/07 10:38:30;;;;;;;7.45;3.63;;;;;;;22.72;32.79;94072.72;5124147;28;20011;-82
2023/05/07 10:40:55;;;;;;;6.80;4.00;;;;;;;22.74;32.92;94075.84;5124153;28;20393;-81
2023/05/07 10:43:21;;;;;;;7.63;3.67;;;;;;;22.79;31.38;94075.44;5123980;28;20030;-82
2023/05/07 10:46:12;;;;;;;5.50;3.55;;;;;;;22.60;31.04;94077.34;5123859;28;20036;-82
2023/05/07 10:49:08;;;;;;;8.98;3.92;;;;;;;22.52;31.68;94075.75;5123729;28;20031;-81
2023/05/07 10:51:35;;;;;;;6.72;3.65;;;;;;;22.51;31.67;94070.72;5123521;28;20133;-81
2023/05/07 10:54:09;;;;;;;9.55;3.60;;;;;;;22.49;30.85;94073.03;5123833;28;20020;-81
2023/05/07 10:56:35;;;;;;;8.90;3.92;;;;;;;22.16;31.17;94070.16;5123964;28;20023;-81
2023/05/07 10:59:23;;;;;;;7.63;3.80;;;;;;;22.05;32.48;94072.06;5122870;28;20124;-82
2023/05/07 11:01:51;;;;;;;6.30;3.25;;;;;;;22.11;32.85;94065.13;5123635;28;20253;-81
2023/05/07 11:04:24;;;;;;;8.98;3.70;;;;;;;22.12;33.04;94063.19;5123713;28;20023;-81
2023/05/07 11:07:12;;;;;;;9.43;3.70;;;;;;;21.91;32.22;94070.06;5123587;28;20062;-81
2023/05/07 11:09:53;;;;;;;8.48;3.45;;;;;;;21.83;31.82;94071.19;5123632;28;20042;-81
2023/05/07 11:12:40;;;;;;;8.10;4.00;;;;;;;21.75;32.26;94067.66;5123738;28;20396;-81
2023/05/07 11:15:17;;;;;;;8.05;4.00;;;;;;;21.78;32.67;94066.13;5123348;28;20054;-81
2023/05/07 11:17:58;;;;;;;8.48;3.58;;;;;;;21.95;32.64;94062.72;5123242;28;20024;-81
2023/05/07 11:20:52;;;;;;;9.25;3.50;;;;;;;22.10;31.92;94066.28;5123620;28;20114;-81
2023/05/07 11:23:37;;;;;;;5.35;3.40;;;;;;;22.27;30.48;94055.88;5123768;28;20016;-82
2023/05/07 11:26:03;;;;;;;7.07;3.13;;;;;;;22.24;30.69;94052.78;5123575;28;20024;-81
2023/05/07 11:28:30;;;;;;;14.88;3.63;;;;;;;22.37;31.55;94047.03;5123589;28;20027;-81